createdAt,value
2017-10-17T00:00:33.849Z,19.10
2017-10-17T00:03:02.129Z,19.40
2017-10-17T00:05:30.413Z,19.60
2017-10-17T00:07:59.054Z,19.80
2017-10-17T00:10:27.336Z,19.80
2017-10-17T00:12:55.581Z,19.90
2017-10-17T00:15:23.845Z,19.70
2017-10-17T00:17:52.137Z,19.70
2017-10-17T00:20:20.388Z,19.60
2017-10-17T00:22:49.037Z,19.50
2017-10-17T00:25:17.319Z,19.50
2017-10-17T00:27:45.566Z,19.30
2017-10-17T00:30:16.682Z,19.20
2017-10-17T00:32:44.978Z,19.10
2017-10-17T00:35:21.173Z,19.10
2017-10-17T00:37:49.426Z,19.20
2017-10-17T00:40:17.682Z,19.40
2017-10-17T00:42:45.979Z,19.40
2017-10-17T00:45:14.232Z,19.40
2017-10-17T00:47:42.755Z,19.50
2017-10-17T00:50:11.040Z,19.50
2017-10-17T00:52:39.285Z,19.20
2017-10-17T00:55:07.532Z,19.20
2017-10-17T00:57:35.840Z,19.20
2017-10-17T01:00:04.095Z,19.10
2017-10-17T01:02:32.390Z,18.90
2017-10-17T01:05:00.651Z,18.90
2017-10-17T01:07:29.168Z,18.80
2017-10-17T01:09:57.455Z,18.80
2017-10-17T01:12:25.739Z,18.70
2017-10-17T01:14:53.984Z,18.70
2017-10-17T01:17:22.579Z,18.70
2017-10-17T01:19:54.645Z,18.80
2017-10-17T01:22:22.941Z,18.90
2017-10-17T01:24:51.587Z,19.00
2017-10-17T01:27:19.832Z,19.00
2017-10-17T01:29:48.108Z,19.00
2017-10-17T01:32:16.352Z,19.10
2017-10-17T01:34:46.624Z,19.30
2017-10-17T01:37:14.881Z,19.20
2017-10-17T01:39:45.808Z,19.20
2017-10-17T01:42:14.068Z,19.30
2017-10-17T01:44:42.339Z,19.20
2017-10-17T01:47:15.620Z,19.30
2017-10-17T01:49:56.493Z,19.30
2017-10-17T01:52:25.446Z,19.20
2017-10-17T01:54:57.012Z,19.00
2017-10-17T01:57:25.262Z,18.90
2017-10-17T02:00:08.413Z,18.90
2017-10-17T02:02:39.582Z,18.90
2017-10-17T02:05:08.048Z,18.70
2017-10-17T02:07:37.127Z,18.60
2017-10-17T02:10:09.808Z,18.60
2017-10-17T02:12:38.054Z,18.40
2017-10-17T02:15:06.312Z,18.40
2017-10-17T02:17:35.350Z,18.70
2017-10-17T02:20:03.591Z,18.80
2017-10-17T02:22:32.593Z,18.90
2017-10-17T02:25:03.471Z,18.80
2017-10-17T02:27:31.749Z,18.80
2017-10-17T02:30:21.478Z,18.90
2017-10-17T02:32:49.773Z,18.90
2017-10-17T02:35:19.595Z,18.90
2017-10-17T02:37:47.843Z,18.80
2017-10-17T02:40:16.139Z,18.80
2017-10-17T02:42:44.385Z,18.80
2017-10-17T02:45:13.027Z,18.90
2017-10-17T02:47:41.308Z,18.90
2017-10-17T02:50:10.273Z,19.20
2017-10-17T02:52:38.926Z,19.30
2017-10-17T02:55:08.833Z,19.20
2017-10-17T02:57:37.460Z,19.10
2017-10-17T03:00:05.724Z,19.10
2017-10-17T03:02:37.596Z,19.30
2017-10-17T03:05:22.362Z,19.30
2017-10-17T03:07:51.310Z,19.40
2017-10-17T03:10:19.553Z,19.50
2017-10-17T03:12:47.796Z,19.60
2017-10-17T03:15:17.413Z,19.80
2017-10-17T03:17:45.657Z,19.90
2017-10-17T03:20:13.906Z,19.90
2017-10-17T03:22:42.558Z,19.70
2017-10-17T03:25:18.689Z,19.70
2017-10-17T03:27:47.892Z,19.60
2017-10-17T03:30:16.152Z,19.60
2017-10-17T03:32:46.084Z,19.50
2017-10-17T03:35:15.234Z,19.30
2017-10-17T03:37:46.396Z,19.20
2017-10-17T03:40:17.129Z,19.00
2017-10-17T03:42:49.040Z,18.90
2017-10-17T03:45:20.052Z,19.10
2017-10-17T03:47:49.824Z,19.20
2017-10-17T03:50:18.808Z,18.80
2017-10-17T03:52:47.087Z,18.80
2017-10-17T03:55:15.321Z,18.70
2017-10-17T03:57:54.284Z,18.70
2017-10-17T04:00:23.018Z,18.60
2017-10-17T04:02:56.004Z,18.50
2017-10-17T04:08:29.392Z,18.70
2017-10-17T04:11:01.597Z,18.70
2017-10-17T04:13:43.751Z,18.70
2017-10-17T04:19:35.455Z,18.20
2017-10-17T04:22:07.172Z,18.20
2017-10-17T04:24:55.206Z,18.40
2017-10-17T04:27:24.687Z,18.20
2017-10-17T04:30:02.462Z,18.20
2017-10-17T04:32:30.704Z,18.30
2017-10-17T04:34:59.056Z,18.10
2017-10-17T04:37:37.548Z,18.20
2017-10-17T04:40:07.202Z,18.30
2017-10-17T04:42:48.810Z,18.30
2017-10-17T04:45:22.059Z,18.30
2017-10-17T04:51:13.372Z,18.30
2017-10-17T04:56:45.628Z,17.90
2017-10-17T04:59:20.577Z,17.40
2017-10-17T05:01:56.914Z,17.50
2017-10-17T05:04:45.681Z,17.50
2017-10-17T05:10:23.101Z,17.80
2017-10-17T05:12:56.875Z,17.80
2017-10-17T05:15:25.161Z,17.80
2017-10-17T05:17:58.151Z,17.70
2017-10-17T05:20:43.921Z,17.80
2017-10-17T05:23:18.073Z,17.60
2017-10-17T05:25:46.343Z,17.70
2017-10-17T05:31:25.020Z,17.80
2017-10-17T05:34:00.386Z,18.10
2017-10-17T05:36:29.834Z,18.20
2017-10-17T05:38:58.444Z,18.20
2017-10-17T05:41:26.734Z,18.30
2017-10-17T05:44:02.612Z,18.30
2017-10-17T05:46:31.263Z,18.10
2017-10-17T05:49:02.200Z,18.10
2017-10-17T05:51:30.497Z,18.10
2017-10-17T05:53:58.785Z,18.10
2017-10-17T05:56:27.089Z,18.10
2017-10-17T05:58:55.361Z,18.20
2017-10-17T06:01:23.640Z,18.30
2017-10-17T06:03:51.929Z,18.20
2017-10-17T06:06:20.199Z,18.30
2017-10-17T06:08:48.485Z,18.30
2017-10-17T06:11:16.760Z,18.20
2017-10-17T06:13:45.073Z,18.30
2017-10-17T06:16:13.348Z,18.20
2017-10-17T06:18:42.040Z,17.80
2017-10-17T06:21:10.320Z,17.80
2017-10-17T06:23:39.004Z,17.90
2017-10-17T06:26:07.354Z,17.90
2017-10-17T06:28:35.758Z,18.10
2017-10-17T06:31:04.413Z,18.40
2017-10-17T06:33:32.691Z,18.40
2017-10-17T06:36:00.987Z,18.70
2017-10-17T06:38:29.291Z,18.90
2017-10-17T06:40:59.193Z,19.10
2017-10-17T06:43:27.845Z,18.80
2017-10-17T06:45:56.129Z,18.80
2017-10-17T06:48:25.297Z,18.80
2017-10-17T06:50:53.597Z,18.90
2017-10-17T06:53:21.888Z,19.00
2017-10-17T06:55:50.352Z,18.90
2017-10-17T06:58:18.623Z,17.10
2017-10-17T07:00:47.561Z,15.90
2017-10-17T07:03:16.257Z,15.40
2017-10-17T07:05:45.415Z,15.40
2017-10-17T07:08:15.011Z,15.10
2017-10-17T07:10:44.567Z,15.00
2017-10-17T07:13:13.156Z,15.00
2017-10-17T07:15:41.732Z,15.20
2017-10-17T07:18:12.529Z,15.20
2017-10-17T07:20:40.888Z,15.30
2017-10-17T07:23:09.143Z,15.40
2017-10-17T07:25:37.403Z,15.40
2017-10-17T07:28:05.750Z,15.40
2017-10-17T07:30:34.086Z,15.60
2017-10-17T07:33:02.322Z,15.80
2017-10-17T07:35:30.857Z,15.80
2017-10-17T07:37:59.136Z,16.00
2017-10-17T07:40:27.414Z,16.10
2017-10-17T07:42:55.681Z,16.10
2017-10-17T07:45:24.025Z,16.20
2017-10-17T07:47:52.440Z,16.60
2017-10-17T07:50:21.353Z,17.20
2017-10-17T07:52:50.032Z,17.10
2017-10-17T07:55:18.326Z,17.10
2017-10-17T07:57:46.996Z,16.80
2017-10-17T08:00:15.278Z,16.80
2017-10-17T08:02:43.548Z,16.90
2017-10-17T08:05:11.795Z,16.90
2017-10-17T08:07:40.111Z,17.00
2017-10-17T08:10:08.781Z,17.90
2017-10-17T08:12:37.150Z,17.90
2017-10-17T08:15:05.450Z,18.30
2017-10-17T08:17:33.709Z,19.00
2017-10-17T08:20:02.232Z,19.30
2017-10-17T08:22:30.900Z,20.30
2017-10-17T08:24:59.552Z,20.30
2017-10-17T08:27:27.815Z,20.30
2017-10-17T08:29:56.081Z,20.20
2017-10-17T08:32:24.351Z,20.90
2017-10-17T08:34:52.646Z,21.20
2017-10-17T08:37:21.223Z,21.40
2017-10-17T08:39:49.596Z,22.00
2017-10-17T08:42:18.529Z,23.00
2017-10-17T08:44:47.223Z,24.20
2017-10-17T08:47:15.612Z,25.30
2017-10-17T08:49:43.947Z,26.20
2017-10-17T08:52:12.289Z,27.00
2017-10-17T08:54:40.562Z,27.80
2017-10-17T08:57:09.085Z,28.50
2017-10-17T08:59:38.184Z,29.00
2017-10-17T09:02:06.439Z,29.40
2017-10-17T09:04:34.736Z,29.70
2017-10-17T09:07:03.243Z,29.90
2017-10-17T09:09:31.906Z,30.80
2017-10-17T09:12:00.590Z,31.20
2017-10-17T09:14:28.897Z,31.20
2017-10-17T09:16:57.224Z,31.30
2017-10-17T09:19:25.535Z,31.30
2017-10-17T09:21:54.003Z,31.50
2017-10-17T09:24:22.295Z,31.30
2017-10-17T09:26:50.596Z,31.50
2017-10-17T09:29:18.904Z,32.00
2017-10-17T09:31:47.422Z,32.10
2017-10-17T09:34:15.691Z,32.30
2017-10-17T09:36:44.069Z,32.40
2017-10-17T09:39:12.309Z,32.60
2017-10-17T09:41:40.584Z,32.80
2017-10-17T09:44:08.875Z,33.20
2017-10-17T09:46:37.116Z,33.50
2017-10-17T09:49:05.399Z,33.90
2017-10-17T09:51:33.772Z,34.30
2017-10-17T09:54:02.494Z,35.10
2017-10-17T09:56:30.824Z,35.10
2017-10-17T09:58:59.062Z,35.40
2017-10-17T10:01:27.342Z,35.70
2017-10-17T10:03:56.148Z,36.00
2017-10-17T10:06:24.491Z,36.20
2017-10-17T10:08:52.786Z,36.30
2017-10-17T10:11:21.033Z,36.30
2017-10-17T10:13:49.313Z,36.40
2017-10-17T10:16:17.559Z,36.60
2017-10-17T10:18:45.940Z,36.60
2017-10-17T10:21:14.251Z,36.70
2017-10-17T10:23:42.520Z,36.50
2017-10-17T10:26:10.903Z,36.80
2017-10-17T10:28:39.220Z,37.00
2017-10-17T10:31:07.489Z,37.00
2017-10-17T10:33:35.752Z,37.20
2017-10-17T10:36:04.154Z,37.10
2017-10-17T10:38:32.821Z,37.40
2017-10-17T10:41:01.089Z,37.40
2017-10-17T10:43:29.473Z,37.70
2017-10-17T10:45:57.868Z,37.80
2017-10-17T10:48:26.113Z,38.00
2017-10-17T10:50:54.554Z,38.20
2017-10-17T10:53:22.834Z,38.00
2017-10-17T10:55:51.133Z,37.90
2017-10-17T10:58:19.404Z,38.10
2017-10-17T11:00:47.648Z,38.30
2017-10-17T11:03:15.964Z,38.60
2017-10-17T11:05:44.216Z,38.80
2017-10-17T11:08:12.612Z,39.00
2017-10-17T11:10:45.332Z,39.20
2017-10-17T11:13:13.591Z,39.00
2017-10-17T11:15:41.911Z,39.20
2017-10-17T11:18:10.989Z,39.20
2017-10-17T11:20:39.272Z,39.30
2017-10-17T11:23:07.572Z,39.40
2017-10-17T11:25:36.045Z,39.50
2017-10-17T11:28:04.323Z,39.20
2017-10-17T11:30:33.039Z,37.80
2017-10-17T11:33:01.455Z,37.80
2017-10-17T11:35:29.713Z,37.80
2017-10-17T11:37:58.056Z,37.90
2017-10-17T11:40:38.100Z,37.70
2017-10-17T11:43:18.079Z,37.30
2017-10-17T11:45:46.399Z,36.40
2017-10-17T11:48:14.630Z,34.80
2017-10-17T11:50:42.936Z,33.10
2017-10-17T11:53:12.452Z,31.50
2017-10-17T11:55:41.588Z,29.60
2017-10-17T11:58:10.123Z,27.90
2017-10-17T12:00:38.486Z,28.10
2017-10-17T12:03:06.762Z,27.10
2017-10-17T12:05:35.053Z,27.30
2017-10-17T12:08:03.306Z,26.20
2017-10-17T12:10:32.676Z,25.00
2017-10-17T12:13:00.957Z,25.80
2017-10-17T12:15:29.670Z,25.40
2017-10-17T12:17:57.942Z,24.50
2017-10-17T12:20:26.244Z,25.30
2017-10-17T12:22:54.725Z,26.90
2017-10-17T12:25:30.007Z,28.10
2017-10-17T12:27:59.562Z,29.00
2017-10-17T12:30:28.359Z,29.10
2017-10-17T12:32:56.645Z,27.70
2017-10-17T12:35:25.317Z,28.00
2017-10-17T12:37:54.195Z,28.30
2017-10-17T12:40:22.532Z,28.40
2017-10-17T12:42:50.832Z,27.80
2017-10-17T12:47:54.481Z,26.90
2017-10-17T12:50:23.195Z,26.10
2017-10-17T12:52:51.496Z,27.20
2017-10-17T12:55:19.784Z,28.10
2017-10-17T12:57:48.095Z,28.50
2017-10-17T13:00:16.376Z,28.70
2017-10-17T13:02:44.636Z,28.90
2017-10-17T13:05:12.931Z,28.20
2017-10-17T13:07:41.289Z,28.20
2017-10-17T13:10:09.567Z,27.40
2017-10-17T13:12:37.877Z,27.80
2017-10-17T13:15:06.241Z,28.10
2017-10-17T13:17:34.547Z,28.50
2017-10-17T13:20:02.931Z,28.50
2017-10-17T13:22:31.190Z,28.20
2017-10-17T13:24:59.484Z,28.20
2017-10-17T13:27:27.790Z,27.60
2017-10-17T13:29:56.036Z,26.80
2017-10-17T13:32:24.312Z,27.20
2017-10-17T13:34:53.644Z,27.90
2017-10-17T13:37:21.912Z,29.00
2017-10-17T13:39:50.181Z,29.70
2017-10-17T13:42:18.475Z,29.60
2017-10-17T13:44:46.735Z,30.00
2017-10-17T13:47:14.989Z,30.50
2017-10-17T13:49:43.262Z,30.80
2017-10-17T13:52:11.557Z,30.90
2017-10-17T13:54:39.836Z,31.00
2017-10-17T13:57:08.091Z,29.20
2017-10-17T13:59:36.395Z,28.90
2017-10-17T14:02:04.648Z,28.50
2017-10-17T14:04:32.958Z,28.40
2017-10-17T14:07:01.245Z,28.20
2017-10-17T14:09:29.525Z,27.70
2017-10-17T14:11:57.797Z,27.70
2017-10-17T14:14:26.084Z,28.10
2017-10-17T14:16:54.375Z,28.70
2017-10-17T14:19:22.801Z,29.20
2017-10-17T14:21:51.492Z,29.30
2017-10-17T14:24:19.817Z,29.20
2017-10-17T14:26:48.213Z,29.10
2017-10-17T14:29:16.905Z,28.30
2017-10-17T14:31:45.208Z,28.30
2017-10-17T14:34:13.565Z,27.70
2017-10-17T14:36:41.821Z,27.10
2017-10-17T14:39:10.136Z,27.30
2017-10-17T14:41:38.428Z,27.50
2017-10-17T14:44:06.709Z,27.20
2017-10-17T14:46:34.997Z,27.10
2017-10-17T14:49:03.307Z,27.60
2017-10-17T14:51:32.183Z,28.40
2017-10-17T14:54:00.438Z,28.50
2017-10-17T14:56:28.830Z,28.30
2017-10-17T14:58:57.116Z,27.70
2017-10-17T15:01:25.796Z,26.20
2017-10-17T15:03:54.053Z,26.20
2017-10-17T15:06:22.370Z,25.90
2017-10-17T15:08:51.075Z,25.10
2017-10-17T15:11:19.332Z,25.10
2017-10-17T15:13:47.600Z,25.40
2017-10-17T15:16:15.895Z,25.40
2017-10-17T15:18:44.145Z,25.20
2017-10-17T15:21:12.422Z,24.60
2017-10-17T15:23:40.680Z,24.20
2017-10-17T15:26:08.969Z,24.00
2017-10-17T15:28:37.675Z,23.30
2017-10-17T15:31:06.333Z,22.90
2017-10-17T15:33:34.621Z,22.90
2017-10-17T15:36:02.924Z,22.40
2017-10-17T15:38:31.169Z,22.20
2017-10-17T15:40:59.528Z,22.40
2017-10-17T15:43:27.798Z,22.90
2017-10-17T15:45:56.052Z,23.50
2017-10-17T15:48:24.454Z,23.90
2017-10-17T15:50:52.729Z,24.40
2017-10-17T15:53:20.990Z,24.60
2017-10-17T15:55:49.745Z,24.20
2017-10-17T15:58:18.047Z,23.50
2017-10-17T16:00:46.306Z,22.80
2017-10-17T16:03:14.560Z,22.30
2017-10-17T16:05:43.245Z,21.90
2017-10-17T16:08:11.506Z,21.90
2017-10-17T16:10:39.767Z,21.60
2017-10-17T16:13:08.472Z,21.30
2017-10-17T16:15:36.733Z,21.10
2017-10-17T16:18:05.017Z,21.00
2017-10-17T16:20:33.513Z,21.10
2017-10-17T16:23:02.182Z,21.10
2017-10-17T16:25:30.458Z,21.10
2017-10-17T16:27:58.737Z,20.80
2017-10-17T16:30:27.004Z,20.70
2017-10-17T16:32:55.294Z,20.60
2017-10-17T16:35:23.994Z,20.50
2017-10-17T16:37:53.173Z,20.50
2017-10-17T16:40:21.529Z,20.40
2017-10-17T16:42:49.799Z,20.30
2017-10-17T16:45:18.106Z,20.30
2017-10-17T16:47:46.415Z,20.40
2017-10-17T16:50:14.717Z,20.40
2017-10-17T16:52:43.025Z,20.30
2017-10-17T16:55:11.337Z,20.30
2017-10-17T16:57:39.634Z,20.30
2017-10-17T17:00:07.937Z,20.30
2017-10-17T17:02:36.483Z,20.50
2017-10-17T17:05:04.899Z,20.70
2017-10-17T17:07:33.185Z,20.90
2017-10-17T17:10:01.457Z,20.90
2017-10-17T17:12:29.971Z,20.90
2017-10-17T17:14:58.662Z,21.40
2017-10-17T17:17:26.936Z,21.40
2017-10-17T17:19:55.619Z,22.20
2017-10-17T17:22:23.877Z,22.20
2017-10-17T17:24:52.177Z,22.80
2017-10-17T17:27:20.846Z,23.70
2017-10-17T17:29:49.502Z,23.90
2017-10-17T17:32:18.101Z,23.90
2017-10-17T17:34:46.377Z,23.40
2017-10-17T17:37:14.662Z,22.90
2017-10-17T17:39:43.379Z,22.80
2017-10-17T17:42:11.621Z,22.80
2017-10-17T17:44:39.872Z,22.70
2017-10-17T17:47:08.150Z,22.50
2017-10-17T17:49:36.417Z,22.00
2017-10-17T17:52:04.686Z,21.50
2017-10-17T17:54:32.954Z,21.50
2017-10-17T17:57:01.228Z,21.50
2017-10-17T17:59:29.853Z,21.20
2017-10-17T18:01:58.182Z,21.20
2017-10-17T18:04:26.472Z,21.10
2017-10-17T18:06:54.761Z,21.20
2017-10-17T18:09:24.038Z,21.30
2017-10-17T18:11:52.319Z,21.30
2017-10-17T18:14:20.655Z,21.20
2017-10-17T18:16:48.988Z,20.70
2017-10-17T18:19:17.287Z,20.50
2017-10-17T18:21:45.958Z,20.80
2017-10-17T18:24:14.222Z,20.80
2017-10-17T18:26:42.507Z,20.80
2017-10-17T18:29:10.861Z,20.90
2017-10-17T18:31:39.169Z,21.00
2017-10-17T18:34:07.639Z,21.00
2017-10-17T18:36:35.886Z,21.00
2017-10-17T18:39:04.156Z,20.90
2017-10-17T18:41:32.436Z,20.80
2017-10-17T18:44:00.768Z,20.80
2017-10-17T18:46:29.438Z,20.80
2017-10-17T18:48:57.681Z,20.80
2017-10-17T18:51:25.954Z,20.80
2017-10-17T18:53:54.220Z,20.70
2017-10-17T18:56:23.682Z,20.60
2017-10-17T18:58:52.274Z,20.50
2017-10-17T19:01:20.555Z,20.40
2017-10-17T19:03:48.836Z,20.30
2017-10-17T19:06:17.601Z,20.40
2017-10-17T19:08:46.337Z,20.30
2017-10-17T19:11:14.625Z,20.40
2017-10-17T19:13:42.889Z,20.30
2017-10-17T19:16:11.152Z,20.20
2017-10-17T19:18:39.497Z,20.20
2017-10-17T19:21:07.785Z,20.10
2017-10-17T19:23:36.055Z,19.90
2017-10-17T19:26:04.342Z,20.00
2017-10-17T19:28:32.618Z,19.90
2017-10-17T19:31:00.917Z,19.70
2017-10-17T19:33:29.593Z,19.50
2017-10-17T19:35:58.290Z,19.40
2017-10-17T19:38:26.608Z,19.40
2017-10-17T19:40:54.989Z,19.10
2017-10-17T19:43:23.279Z,19.00
2017-10-17T19:45:51.660Z,18.90
2017-10-17T19:48:19.960Z,19.00
2017-10-17T19:50:48.617Z,19.10
2017-10-17T19:53:16.958Z,19.10
2017-10-17T19:55:45.213Z,19.10
2017-10-17T19:58:13.767Z,19.10
2017-10-17T20:00:42.077Z,19.20
2017-10-17T20:03:10.448Z,19.20
2017-10-17T20:05:38.713Z,19.20
2017-10-17T20:08:07.058Z,19.10
2017-10-17T20:10:35.318Z,19.00
2017-10-17T20:13:03.616Z,19.00
2017-10-17T20:15:31.932Z,19.00
2017-10-17T20:18:00.228Z,19.00
2017-10-17T20:20:28.473Z,18.90
2017-10-17T20:22:57.158Z,18.70
2017-10-17T20:25:25.802Z,18.70
2017-10-17T20:27:54.055Z,18.60
2017-10-17T20:30:22.341Z,18.60
2017-10-17T20:32:50.639Z,18.60
2017-10-17T20:35:18.869Z,18.60
2017-10-17T20:37:47.163Z,18.60
2017-10-17T20:40:15.404Z,18.70
2017-10-17T20:42:43.683Z,18.70
2017-10-17T20:45:12.392Z,18.40
2017-10-17T20:47:40.681Z,18.40
2017-10-17T20:50:09.340Z,18.20
2017-10-17T20:52:37.628Z,18.40
2017-10-17T20:55:05.906Z,18.40
2017-10-17T20:57:34.193Z,18.30
2017-10-17T21:00:02.460Z,18.10
2017-10-17T21:02:30.722Z,18.20
2017-10-17T21:04:59.302Z,18.30
2017-10-17T21:07:27.947Z,18.20
2017-10-17T21:09:56.213Z,18.20
2017-10-17T21:12:24.525Z,17.90
2017-10-17T21:14:53.171Z,17.60
2017-10-17T21:17:21.419Z,17.60
2017-10-17T21:19:49.719Z,17.50
2017-10-17T21:22:18.432Z,17.60
2017-10-17T21:24:46.692Z,17.70
2017-10-17T21:27:14.986Z,17.60
2017-10-17T21:29:43.220Z,17.50
2017-10-17T21:32:11.501Z,17.60
2017-10-17T21:34:39.746Z,17.70
2017-10-17T21:37:08.003Z,17.70
2017-10-17T21:39:36.755Z,18.10
2017-10-17T21:42:06.133Z,18.10
2017-10-17T21:44:34.392Z,18.10
2017-10-17T21:47:02.653Z,17.90
2017-10-17T21:49:30.908Z,18.00
2017-10-17T21:51:59.589Z,18.30
2017-10-17T21:54:28.368Z,18.40
2017-10-17T21:56:56.819Z,18.40
2017-10-17T21:59:25.072Z,18.30
2017-10-17T22:01:53.873Z,18.40
2017-10-17T22:04:22.451Z,18.50
2017-10-17T22:06:50.720Z,18.50
2017-10-17T22:09:18.969Z,18.40
2017-10-17T22:11:47.665Z,18.50
2017-10-17T22:14:16.080Z,18.50
2017-10-17T22:16:44.692Z,18.40
2017-10-17T22:19:12.941Z,18.20
2017-10-17T22:21:41.565Z,18.20
2017-10-17T22:24:09.824Z,18.10
2017-10-17T22:26:38.097Z,17.90
2017-10-17T22:29:06.436Z,17.80
2017-10-17T22:31:34.690Z,18.10
2017-10-17T22:34:03.371Z,18.50
2017-10-17T22:36:32.018Z,18.50
2017-10-17T22:39:00.294Z,18.50
2017-10-17T22:41:28.539Z,18.60
2017-10-17T22:43:56.793Z,18.50
2017-10-17T22:46:25.053Z,18.50
2017-10-17T22:48:53.325Z,18.30
2017-10-17T22:51:21.574Z,18.30
2017-10-17T22:53:49.813Z,18.10
2017-10-17T22:56:18.089Z,18.20
2017-10-17T22:58:46.366Z,18.30
2017-10-17T23:01:14.610Z,18.00
2017-10-17T23:03:42.852Z,17.70
2017-10-17T23:06:11.141Z,17.40
2017-10-17T23:08:39.649Z,17.20
2017-10-17T23:11:08.298Z,17.80
2017-10-17T23:13:36.551Z,17.80
2017-10-17T23:16:04.797Z,17.70
2017-10-17T23:21:36.597Z,18.10
2017-10-17T23:24:04.880Z,18.10
2017-10-17T23:26:33.132Z,18.20
2017-10-17T23:29:01.472Z,18.20
2017-10-17T23:31:29.734Z,18.30
2017-10-17T23:33:58.532Z,18.30
2017-10-17T23:36:26.780Z,18.00
2017-10-17T23:38:55.057Z,17.90
2017-10-17T23:41:23.665Z,18.10
2017-10-17T23:43:51.945Z,18.00
2017-10-17T23:46:20.415Z,18.00
2017-10-17T23:48:48.700Z,17.90
2017-10-17T23:51:16.975Z,17.80
2017-10-17T23:53:45.457Z,17.50
2017-10-17T23:56:13.711Z,17.60
2017-10-17T23:58:41.977Z,17.70
